createdAt,value
2019-04-11T00:00:55.474Z,5.37
2019-04-11T00:03:29.351Z,6.50
2019-04-11T00:05:59.984Z,5.33
2019-04-11T00:08:30.520Z,7.80
2019-04-11T00:11:03.791Z,5.63
2019-04-11T00:13:36.335Z,6.13
2019-04-11T00:16:07.330Z,5.90
2019-04-11T00:18:38.783Z,6.03
2019-04-11T00:21:10.524Z,6.00
2019-04-11T00:23:42.417Z,5.87
2019-04-11T00:26:13.874Z,10.07
2019-04-11T00:28:44.524Z,6.33
2019-04-11T00:31:15.082Z,5.87
2019-04-11T00:33:46.637Z,6.33
2019-04-11T00:36:17.384Z,5.47
2019-04-11T00:38:49.934Z,5.67
2019-04-11T00:41:21.730Z,6.03
2019-04-11T00:43:52.568Z,8.67
2019-04-11T00:46:24.474Z,6.13
2019-04-11T00:48:55.237Z,6.60
2019-04-11T00:51:25.873Z,6.70
2019-04-11T00:53:56.415Z,7.90
2019-04-11T00:56:26.975Z,5.93
2019-04-11T00:58:58.306Z,5.90
2019-04-11T01:01:31.509Z,7.33
2019-04-11T01:04:03.296Z,5.73
2019-04-11T01:06:35.066Z,6.40
2019-04-11T01:09:08.292Z,7.73
2019-04-11T01:11:40.379Z,6.07
2019-04-11T01:14:11.074Z,6.67
2019-04-11T01:16:54.485Z,5.40
2019-04-11T01:19:26.857Z,5.67
2019-04-11T01:21:59.528Z,6.07
2019-04-11T01:24:31.429Z,7.50
2019-04-11T01:27:02.529Z,7.73
2019-04-11T01:29:33.564Z,6.80
2019-04-11T01:32:06.934Z,6.17
2019-04-11T01:34:37.484Z,6.70
2019-04-11T01:37:09.356Z,9.23
2019-04-11T01:39:51.639Z,7.00
2019-04-11T01:42:24.924Z,6.33
2019-04-11T01:44:57.114Z,5.83
2019-04-11T01:47:53.233Z,6.80
2019-04-11T01:50:27.264Z,6.87
2019-04-11T01:52:58.436Z,6.27
2019-04-11T01:55:30.429Z,6.33
2019-04-11T01:58:00.996Z,6.07
2019-04-11T02:00:54.723Z,7.63
2019-04-11T02:03:39.313Z,7.03
2019-04-11T02:06:11.900Z,5.83
2019-04-11T02:08:42.448Z,10.07
2019-04-11T02:11:13.094Z,5.57
2019-04-11T02:13:44.890Z,6.63
2019-04-11T02:16:17.195Z,5.83
2019-04-11T02:18:47.801Z,7.37
2019-04-11T02:21:19.966Z,5.73
2019-04-11T02:24:11.867Z,5.60
2019-04-11T02:26:46.572Z,5.40
2019-04-11T02:29:17.321Z,6.60
2019-04-11T02:31:48.020Z,6.10
2019-04-11T02:34:19.339Z,6.37
2019-04-11T02:36:51.323Z,6.73
2019-04-11T02:39:22.877Z,5.90
2019-04-11T02:41:55.007Z,6.93
2019-04-11T02:44:36.564Z,6.47
2019-04-11T02:47:05.975Z,6.43
2019-04-11T02:49:32.922Z,7.33
2019-04-11T02:52:03.714Z,10.03
2019-04-11T02:54:34.480Z,6.90
2019-04-11T02:57:07.938Z,6.30
2019-04-11T02:59:40.870Z,7.17
2019-04-11T03:02:16.488Z,8.13
2019-04-11T03:04:46.020Z,7.20
2019-04-11T03:07:17.409Z,7.37
2019-04-11T03:09:48.834Z,6.83
2019-04-11T03:12:21.405Z,6.40
2019-04-11T03:15:12.957Z,8.67
2019-04-11T03:17:34.106Z,7.50
2019-04-11T03:20:13.030Z,6.53
2019-04-11T03:22:34.954Z,7.80
2019-04-11T03:25:07.928Z,7.77
2019-04-11T03:27:40.899Z,7.10
2019-04-11T03:30:19.664Z,7.43
2019-04-11T03:33:57.197Z,8.27
2019-04-11T03:36:07.946Z,7.57
2019-04-11T03:38:15.279Z,7.30
2019-04-11T03:40:47.057Z,7.90
2019-04-11T03:43:11.763Z,6.87
2019-04-11T03:45:52.734Z,7.17
2019-04-11T03:48:21.813Z,7.20
2019-04-11T03:50:40.357Z,8.73
2019-04-11T03:53:12.314Z,9.07
2019-04-11T03:55:43.343Z,7.33
2019-04-11T03:58:15.490Z,6.53
2019-04-11T04:00:50.369Z,8.47
2019-04-11T04:03:22.335Z,6.97
2019-04-11T04:05:54.897Z,7.53
2019-04-11T04:08:27.096Z,8.60
2019-04-11T04:11:30.480Z,7.10
2019-04-11T04:14:08.389Z,7.77
2019-04-11T04:17:14.727Z,8.93
2019-04-11T04:19:54.322Z,8.70
2019-04-11T04:22:37.847Z,7.77
2019-04-11T04:25:10.340Z,7.27
2019-04-11T04:27:42.760Z,7.37
2019-04-11T04:30:15.532Z,7.97
2019-04-11T04:32:47.166Z,8.90
2019-04-11T04:35:21.001Z,8.03
2019-04-11T04:37:51.830Z,7.30
2019-04-11T04:40:41.374Z,7.87
2019-04-11T04:43:01.218Z,8.43
2019-04-11T04:45:54.718Z,10.87
2019-04-11T04:48:11.807Z,9.27
2019-04-11T04:50:40.466Z,9.30
2019-04-11T04:53:11.177Z,8.70
2019-04-11T04:55:43.390Z,9.57
2019-04-11T04:58:15.796Z,10.03
2019-04-11T05:00:48.437Z,10.77
2019-04-11T05:03:22.266Z,9.63
2019-04-11T05:05:55.104Z,10.57
2019-04-11T05:08:26.962Z,8.67
2019-04-11T05:11:01.803Z,9.17
2019-04-11T05:13:34.285Z,11.80
2019-04-11T05:16:15.131Z,9.50
2019-04-11T05:18:37.556Z,9.03
2019-04-11T05:21:08.655Z,8.80
2019-04-11T05:23:39.548Z,10.83
2019-04-11T05:26:10.958Z,8.00
2019-04-11T05:28:41.861Z,9.50
2019-04-11T05:31:12.466Z,8.37
2019-04-11T05:33:43.539Z,10.03
2019-04-11T05:36:14.414Z,11.77
2019-04-11T05:38:46.287Z,11.27
2019-04-11T05:41:17.448Z,8.67
2019-04-11T05:43:51.514Z,10.53
2019-04-11T05:46:33.470Z,10.00
2019-04-11T05:49:29.044Z,9.70
2019-04-11T05:52:08.289Z,9.50
2019-04-11T05:54:45.211Z,10.13
2019-04-11T05:57:21.218Z,8.90
2019-04-11T05:59:53.092Z,10.17
2019-04-11T06:02:29.419Z,10.83
2019-04-11T06:05:29.605Z,9.63
2019-04-11T06:08:02.666Z,10.70
2019-04-11T06:10:52.589Z,10.63
2019-04-11T06:13:32.150Z,9.40
2019-04-11T06:16:04.668Z,9.53
2019-04-11T06:18:54.120Z,10.67
2019-04-11T06:21:35.883Z,10.63
2019-04-11T06:24:18.214Z,11.70
2019-04-11T06:27:06.403Z,11.20
2019-04-11T06:29:45.531Z,11.43
2019-04-11T06:32:34.665Z,10.07
2019-04-11T06:35:11.590Z,9.77
2019-04-11T06:38:20.893Z,9.23
2019-04-11T06:40:59.939Z,11.50
2019-04-11T06:43:36.654Z,10.30
2019-04-11T06:46:27.231Z,9.50
2019-04-11T06:49:18.593Z,12.27
2019-04-11T06:51:56.748Z,9.73
2019-04-11T06:54:45.414Z,12.90
2019-04-11T06:57:19.597Z,11.67
2019-04-11T06:59:50.414Z,9.07
2019-04-11T07:02:23.311Z,10.17
2019-04-11T07:05:02.492Z,10.13
2019-04-11T07:07:35.668Z,10.97
2019-04-11T07:10:09.511Z,9.27
2019-04-11T07:12:47.122Z,9.10
2019-04-11T07:15:29.410Z,11.22
2019-04-11T07:18:18.285Z,8.73
2019-04-11T07:20:52.317Z,8.50
2019-04-11T07:23:42.317Z,10.43
2019-04-11T07:26:35.128Z,8.75
2019-04-11T07:29:27.898Z,8.90
2019-04-11T07:32:23.302Z,8.13
2019-04-11T07:35:13.287Z,7.78
2019-04-11T07:37:49.342Z,9.65
2019-04-11T07:40:39.388Z,8.70
2019-04-11T07:43:14.986Z,7.45
2019-04-11T07:46:14.852Z,7.37
2019-04-11T07:48:46.781Z,8.10
2019-04-11T07:51:25.672Z,9.20
2019-04-11T07:54:00.285Z,7.55
2019-04-11T07:56:38.877Z,6.75
2019-04-11T07:59:17.605Z,6.62
2019-04-11T08:02:10.387Z,7.17
2019-04-11T08:05:02.990Z,8.58
2019-04-11T08:07:46.878Z,7.37
2019-04-11T08:10:22.874Z,8.83
2019-04-11T08:12:54.080Z,7.30
2019-04-11T08:15:43.893Z,9.80
2019-04-11T08:18:36.908Z,6.97
2019-04-11T08:21:26.215Z,6.97
2019-04-11T08:23:58.882Z,7.45
2019-04-11T08:26:50.519Z,6.33
2019-04-11T08:29:22.196Z,8.40
2019-04-11T08:32:11.826Z,5.65
2019-04-11T08:34:49.972Z,6.12
2019-04-11T08:37:43.376Z,7.03
2019-04-11T08:40:14.433Z,5.78
2019-04-11T08:43:02.721Z,5.90
2019-04-11T08:45:33.981Z,6.33
2019-04-11T08:48:07.079Z,5.40
2019-04-11T08:50:40.830Z,5.70
2019-04-11T08:53:29.059Z,8.08
2019-04-11T08:56:02.640Z,6.15
2019-04-11T08:58:58.492Z,5.05
2019-04-11T09:01:29.815Z,6.53
2019-04-11T09:04:19.735Z,6.28
2019-04-11T09:06:50.410Z,7.22
2019-04-11T09:09:47.397Z,6.85
2019-04-11T09:12:26.768Z,7.95
2019-04-11T09:15:26.627Z,4.90
2019-04-11T09:18:04.631Z,5.10
2019-04-11T09:20:54.609Z,5.60
2019-04-11T09:23:26.332Z,5.78
2019-04-11T09:26:32.005Z,8.55
2019-04-11T09:29:04.075Z,6.00
2019-04-11T09:31:56.284Z,7.05
2019-04-11T09:34:54.772Z,6.15
2019-04-11T09:37:30.806Z,4.85
2019-04-11T09:40:23.957Z,5.17
2019-04-11T09:43:12.558Z,5.42
2019-04-11T09:46:08.324Z,5.97
2019-04-11T09:48:56.657Z,4.58
2019-04-11T09:51:51.983Z,5.30
2019-04-11T09:54:40.195Z,5.45
2019-04-11T09:57:32.847Z,8.03
2019-04-11T10:00:20.712Z,4.87
2019-04-11T10:02:56.416Z,4.60
2019-04-11T10:05:32.014Z,4.92
2019-04-11T10:08:17.191Z,4.63
2019-04-11T10:11:10.195Z,5.33
2019-04-11T10:14:11.915Z,8.85
2019-04-11T10:17:02.286Z,5.75
2019-04-11T10:20:02.758Z,6.60
2019-04-11T10:22:52.413Z,5.25
2019-04-11T10:25:45.517Z,8.33
2019-04-11T10:28:42.184Z,6.33
2019-04-11T10:31:18.168Z,6.10
2019-04-11T10:34:13.870Z,4.93
2019-04-11T10:36:51.636Z,6.05
2019-04-11T10:40:00.083Z,5.30
2019-04-11T10:42:31.317Z,4.90
2019-04-11T10:45:25.252Z,4.90
2019-04-11T10:47:58.209Z,6.97
2019-04-11T10:50:56.769Z,6.08
2019-04-11T10:53:27.937Z,6.37
2019-04-11T10:56:16.420Z,8.50
2019-04-11T10:58:49.310Z,5.42
2019-04-11T11:01:37.682Z,5.40
2019-04-11T11:04:17.881Z,5.07
2019-04-11T11:06:52.129Z,5.93
2019-04-11T11:09:42.077Z,6.08
2019-04-11T11:12:32.972Z,4.42
2019-04-11T11:15:31.713Z,6.80
2019-04-11T11:18:41.095Z,4.90
2019-04-11T11:20:57.095Z,6.65
2019-04-11T11:23:45.004Z,5.62
2019-04-11T11:26:22.864Z,5.85
2019-04-11T11:29:08.276Z,5.60
2019-04-11T11:31:40.781Z,8.30
2019-04-11T11:34:19.260Z,5.67
2019-04-11T11:37:07.053Z,6.17
2019-04-11T11:39:49.100Z,7.03
2019-04-11T11:42:46.733Z,5.30
2019-04-11T11:45:25.629Z,6.07
2019-04-11T11:48:13.658Z,6.70
2019-04-11T11:50:40.610Z,6.60
2019-04-11T11:53:38.602Z,7.58
2019-04-11T11:56:09.567Z,5.80
2019-04-11T11:59:09.128Z,5.05
2019-04-11T12:01:49.279Z,6.85
2019-04-11T12:04:46.393Z,6.17
2019-04-11T12:07:19.040Z,6.70
2019-04-11T12:10:07.433Z,6.47
2019-04-11T12:12:56.008Z,6.37
2019-04-11T12:15:49.021Z,6.08
2019-04-11T12:18:48.625Z,5.17
2019-04-11T12:21:23.787Z,7.15
2019-04-11T12:24:20.391Z,6.93
2019-04-11T12:27:00.707Z,5.60
2019-04-11T12:29:51.892Z,6.35
2019-04-11T12:32:25.724Z,6.07
2019-04-11T12:35:25.750Z,5.62
2019-04-11T12:38:01.375Z,5.25
2019-04-11T12:40:49.932Z,7.63
2019-04-11T12:43:20.588Z,7.40
2019-04-11T12:46:09.003Z,7.05
2019-04-11T12:48:43.169Z,5.80
2019-04-11T12:51:22.004Z,5.03
2019-04-11T12:53:54.425Z,5.40
2019-04-11T12:56:43.972Z,8.65
2019-04-11T12:59:18.343Z,5.20
2019-04-11T13:02:06.806Z,5.33
2019-04-11T13:04:39.369Z,5.03
2019-04-11T13:07:34.348Z,5.75
2019-04-11T13:10:18.478Z,6.10
2019-04-11T13:13:20.041Z,4.90
2019-04-11T13:15:55.291Z,5.20
2019-04-11T13:18:43.245Z,4.77
2019-04-11T13:21:20.578Z,4.80
2019-04-11T13:24:11.241Z,5.93
2019-04-11T13:26:59.867Z,5.62
2019-04-11T13:30:04.757Z,10.53
2019-04-11T13:33:08.569Z,4.83
2019-04-11T13:36:04.058Z,4.87
2019-04-11T13:38:43.397Z,6.83
2019-04-11T13:41:38.781Z,4.63
2019-04-11T13:44:15.354Z,6.03
2019-04-11T13:47:11.309Z,5.47
2019-04-11T13:50:00.878Z,6.20
2019-04-11T13:52:51.340Z,5.70
2019-04-11T13:55:33.234Z,6.83
2019-04-11T13:58:21.748Z,6.27
2019-04-11T14:00:56.607Z,4.87
2019-04-11T14:03:49.771Z,5.27
2019-04-11T14:06:32.154Z,4.77
2019-04-11T14:09:21.918Z,5.63
2019-04-11T14:12:04.840Z,5.77
2019-04-11T14:14:42.087Z,5.30
2019-04-11T14:17:22.061Z,6.17
2019-04-11T14:20:11.566Z,5.00
2019-04-11T14:22:58.509Z,5.13
2019-04-11T14:25:44.404Z,6.12
2019-04-11T14:28:14.996Z,5.58
2019-04-11T14:30:57.068Z,5.37
2019-04-11T14:33:29.737Z,5.90
2019-04-11T14:36:18.359Z,5.30
2019-04-11T14:38:52.086Z,6.00
2019-04-11T14:41:41.526Z,5.30
2019-04-11T14:44:11.587Z,5.57
2019-04-11T14:46:59.979Z,5.90
2019-04-11T14:49:30.601Z,7.10
2019-04-11T14:52:27.628Z,4.83
2019-04-11T14:55:01.022Z,4.77
2019-04-11T14:57:56.767Z,8.17
2019-04-11T15:00:30.780Z,4.50
2019-04-11T15:03:35.640Z,4.97
2019-04-11T15:06:31.317Z,5.43
2019-04-11T15:09:30.621Z,4.67
2019-04-11T15:12:20.076Z,3.70
2019-04-11T15:15:15.455Z,4.83
2019-04-11T15:17:46.711Z,4.30
2019-04-11T15:20:41.304Z,4.10
2019-04-11T15:23:20.220Z,3.90
2019-04-11T15:26:09.955Z,4.20
2019-04-11T15:28:59.789Z,4.10
2019-04-11T15:31:39.567Z,4.43
2019-04-11T15:34:44.689Z,4.10
2019-04-11T15:37:33.085Z,4.78
2019-04-11T15:40:07.752Z,4.30
2019-04-11T15:42:57.225Z,3.70
2019-04-11T15:45:38.766Z,3.90
2019-04-11T15:48:46.844Z,6.90
2019-04-11T15:51:31.582Z,4.53
2019-04-11T15:54:27.177Z,4.00
2019-04-11T15:57:26.966Z,4.17
2019-04-11T16:00:28.882Z,4.37
2019-04-11T16:03:24.647Z,3.53
2019-04-11T16:06:12.677Z,4.60
2019-04-11T16:08:46.530Z,3.13
2019-04-11T16:11:51.621Z,3.13
2019-04-11T16:14:27.556Z,2.50
2019-04-11T16:17:35.475Z,3.03
2019-04-11T16:20:13.301Z,3.35
2019-04-11T16:23:02.802Z,3.83
2019-04-11T16:25:33.506Z,2.80
2019-04-11T16:28:21.977Z,2.53
2019-04-11T16:30:59.849Z,3.50
2019-04-11T16:33:48.120Z,3.50
2019-04-11T16:36:37.736Z,2.63
2019-04-11T16:39:49.963Z,3.87
2019-04-11T16:42:38.555Z,2.95
2019-04-11T16:45:35.107Z,2.90
2019-04-11T16:48:05.706Z,3.10
2019-04-11T16:50:37.423Z,2.90
2019-04-11T16:53:11.543Z,3.47
2019-04-11T16:55:43.183Z,2.93
2019-04-11T16:58:16.996Z,2.03
2019-04-11T17:00:46.260Z,2.37
2019-04-11T17:03:17.371Z,2.10
2019-04-11T17:06:02.954Z,2.07
2019-04-11T17:08:41.491Z,2.10
2019-04-11T17:11:18.774Z,2.00
2019-04-11T17:13:48.988Z,1.40
2019-04-11T17:16:20.787Z,3.70
2019-04-11T17:18:53.299Z,1.70
2019-04-11T17:21:23.852Z,1.80
2019-04-11T17:23:54.530Z,2.30
2019-04-11T17:26:25.136Z,1.60
2019-04-11T17:28:57.331Z,2.17
2019-04-11T17:31:28.321Z,2.13
2019-04-11T17:34:01.590Z,2.67
2019-04-11T17:36:33.525Z,3.63
2019-04-11T17:39:07.565Z,3.17
2019-04-11T17:41:41.750Z,3.53
2019-04-11T17:44:10.730Z,1.87
2019-04-11T17:46:41.347Z,2.23
2019-04-11T17:49:32.474Z,2.77
2019-04-11T17:52:05.188Z,1.97
2019-04-11T17:54:35.553Z,2.23
2019-04-11T17:57:06.237Z,1.80
2019-04-11T17:59:38.639Z,1.53
2019-04-11T18:02:11.144Z,1.47
2019-04-11T18:04:45.759Z,1.57
2019-04-11T18:07:16.997Z,2.00
2019-04-11T18:09:48.178Z,2.00
2019-04-11T18:12:18.767Z,1.60
2019-04-11T18:14:49.513Z,2.13
2019-04-11T18:17:20.150Z,2.30
2019-04-11T18:19:50.795Z,2.13
2019-04-11T18:22:21.705Z,1.60
2019-04-11T18:24:52.429Z,1.60
2019-04-11T18:27:23.166Z,2.00
2019-04-11T18:29:54.057Z,1.73
2019-04-11T18:32:25.136Z,1.60
2019-04-11T18:34:55.820Z,1.67
2019-04-11T18:37:26.552Z,2.30
2019-04-11T18:39:57.185Z,2.20
2019-04-11T18:42:31.470Z,1.60
2019-04-11T18:45:02.134Z,2.63
2019-04-11T18:47:32.729Z,1.90
2019-04-11T18:50:03.498Z,2.13
2019-04-11T18:52:34.380Z,1.87
2019-04-11T18:55:06.267Z,3.30
2019-04-11T18:57:36.886Z,2.27
2019-04-11T19:00:12.186Z,1.83
2019-04-11T19:02:42.782Z,3.03
2019-04-11T19:05:13.926Z,2.07
2019-04-11T19:07:47.356Z,1.83
2019-04-11T19:10:17.982Z,3.23
2019-04-11T19:12:48.664Z,1.90
2019-04-11T19:15:19.381Z,1.80
2019-04-11T19:18:00.423Z,1.50
2019-04-11T19:20:22.836Z,1.20
2019-04-11T19:22:53.718Z,1.47
2019-04-11T19:25:26.502Z,1.40
2019-04-11T19:27:59.316Z,1.60
2019-04-11T19:30:29.931Z,1.50
2019-04-11T19:33:01.721Z,1.30
2019-04-11T19:35:32.455Z,1.47
2019-04-11T19:38:07.261Z,1.50
2019-04-11T19:40:38.912Z,1.20
2019-04-11T19:43:09.688Z,1.93
2019-04-11T19:45:40.347Z,1.63
2019-04-11T19:48:11.026Z,1.50
2019-04-11T19:50:41.732Z,1.30
2019-04-11T19:53:12.361Z,1.10
2019-04-11T19:56:02.990Z,1.33
2019-04-11T19:58:33.370Z,2.03
2019-04-11T20:01:04.243Z,1.53
2019-04-11T20:03:34.907Z,3.03
2019-04-11T20:06:07.269Z,2.03
2019-04-11T20:08:37.950Z,1.33
2019-04-11T20:11:08.596Z,1.77
2019-04-11T20:13:39.288Z,1.50
2019-04-11T20:16:12.417Z,2.07
2019-04-11T20:18:50.907Z,1.70
2019-04-11T20:21:15.255Z,1.50
2019-04-11T20:23:45.911Z,1.50
2019-04-11T20:26:19.976Z,1.60
2019-04-11T20:28:51.015Z,2.17
2019-04-11T20:31:22.256Z,1.30
2019-04-11T20:33:53.056Z,2.00
2019-04-11T20:36:33.200Z,1.50
2019-04-11T20:38:57.699Z,1.50
2019-04-11T20:41:28.302Z,1.60
2019-04-11T20:44:00.402Z,1.60
2019-04-11T20:46:30.989Z,1.30
2019-04-11T20:49:01.723Z,1.63
2019-04-11T20:51:32.351Z,1.73
2019-04-11T20:54:07.035Z,1.77
2019-04-11T20:56:35.480Z,1.67
2019-04-11T20:59:10.021Z,2.13
2019-04-11T21:01:40.046Z,1.67
2019-04-11T21:04:11.858Z,2.07
2019-04-11T21:06:42.479Z,1.83
2019-04-11T21:09:13.423Z,1.90
2019-04-11T21:11:44.196Z,2.17
2019-04-11T21:14:14.820Z,1.97
2019-04-11T21:16:45.383Z,1.87
2019-04-11T21:19:17.221Z,1.97
2019-04-11T21:21:47.874Z,1.60
2019-04-11T21:24:18.570Z,4.40
2019-04-11T21:26:50.235Z,2.40
2019-04-11T21:29:21.976Z,2.50
2019-04-11T21:31:52.792Z,2.23
2019-04-11T21:34:23.382Z,2.60
2019-04-11T21:36:53.950Z,2.10
2019-04-11T21:39:26.029Z,2.47
2019-04-11T21:41:56.592Z,2.40
2019-04-11T21:44:27.387Z,4.33
2019-04-11T21:46:58.162Z,2.33
2019-04-11T21:49:28.884Z,2.73
2019-04-11T21:52:03.172Z,2.47
2019-04-11T21:54:33.734Z,2.17
2019-04-11T21:57:04.387Z,2.50
2019-04-11T21:59:36.850Z,2.47
2019-04-11T22:02:10.942Z,2.40
2019-04-11T22:04:42.850Z,2.47
2019-04-11T22:07:13.488Z,2.60
2019-04-11T22:09:45.225Z,2.50
2019-04-11T22:12:15.761Z,2.27
2019-04-11T22:14:46.388Z,4.23
2019-04-11T22:17:17.245Z,2.50
2019-04-11T22:19:47.890Z,2.40
2019-04-11T22:22:18.614Z,3.83
2019-04-11T22:25:08.578Z,2.00
2019-04-11T22:27:39.281Z,3.30
2019-04-11T22:30:10.275Z,2.53
2019-04-11T22:32:43.760Z,2.30
2019-04-11T22:35:14.553Z,2.37
2019-04-11T22:37:45.125Z,1.97
2019-04-11T22:40:15.738Z,2.20
2019-04-11T22:42:46.353Z,2.07
2019-04-11T22:45:16.998Z,3.40
2019-04-11T22:47:47.547Z,2.37
2019-04-11T22:50:18.186Z,2.90
2019-04-11T22:52:48.721Z,2.10
2019-04-11T22:55:19.439Z,2.53
2019-04-11T22:57:50.011Z,2.83
2019-04-11T23:00:20.958Z,2.63
2019-04-11T23:03:05.013Z,1.83
2019-04-11T23:05:36.842Z,1.73
2019-04-11T23:08:07.448Z,1.87
2019-04-11T23:10:38.076Z,1.80
2019-04-11T23:13:08.733Z,1.90
2019-04-11T23:15:39.292Z,2.13
2019-04-11T23:18:11.865Z,1.50
2019-04-11T23:20:44.094Z,2.23
2019-04-11T23:23:15.544Z,1.90
2019-04-11T23:25:47.927Z,1.83
2019-04-11T23:28:18.500Z,1.70
2019-04-11T23:30:50.521Z,2.20
2019-04-11T23:33:23.867Z,2.67
2019-04-11T23:35:55.608Z,1.47
2019-04-11T23:38:26.231Z,1.70
2019-04-11T23:40:56.814Z,2.33
2019-04-11T23:43:28.495Z,1.77
2019-04-11T23:45:59.500Z,1.80
2019-04-11T23:48:30.083Z,1.70
2019-04-11T23:51:00.679Z,1.53
2019-04-11T23:53:32.450Z,1.60
2019-04-11T23:56:02.991Z,1.53
2019-04-11T23:58:33.547Z,2.10
